CPT785 PHNL-PHJH
Flight info
| Callsign | CPT785 |
|---|---|
| Flight time | 0h 33m |
| Altitude | 7000 |
| Route | PALAY3 LNY |
| Aircraft | C28G/L-SDFGR/C |
Departure
| Time | 2026-04-25 00:44 |
|---|---|
| Airport | Daniel K. Inouye International Airport (PHNL) |
Arrival
| Time | 2026-04-25 01:18 |
|---|---|
| Airport | Kapalua Airport (PHJH) |
| Time | Latitude | Longitude | Altitude | Speed | Heading |
|---|---|---|---|---|---|
| 2026-04-25 00:22 | 21.31723 | -157.91828 | 6 ft | 0 kts | 54° |
| 2026-04-25 00:24 | 21.31722 | -157.91828 | 23 ft | 0 kts | 54° |
| 2026-04-25 00:26 | 21.31722 | -157.91829 | 23 ft | 0 kts | 54° |
| 2026-04-25 00:30 | 21.31722 | -157.91830 | 23 ft | 0 kts | 54° |
| 2026-04-25 00:30 | 21.31721 | -157.91830 | 23 ft | 0 kts | 54° |
| 2026-04-25 00:34 | 21.31721 | -157.91831 | 23 ft | 0 kts | 54° |
| 2026-04-25 00:36 | 21.31740 | -157.91842 | 24 ft | 9 kts | 298° |
| 2026-04-25 00:36 | 21.31721 | -157.91952 | 24 ft | 21 kts | 239° |
| 2026-04-25 00:37 | 21.31627 | -157.92087 | 23 ft | 24 kts | 232° |
| 2026-04-25 00:37 | 21.31544 | -157.92203 | 23 ft | 16 kts | 231° |
| 2026-04-25 00:37 | 21.31492 | -157.92281 | 25 ft | 11 kts | 230° |
| 2026-04-25 00:37 | 21.31447 | -157.92342 | 24 ft | 12 kts | 233° |
| 2026-04-25 00:38 | 21.31376 | -157.92443 | 24 ft | 22 kts | 233° |
| 2026-04-25 00:38 | 21.31297 | -157.92557 | 23 ft | 13 kts | 238° |
| 2026-04-25 00:38 | 21.31302 | -157.92620 | 24 ft | 6 kts | 325° |
| 2026-04-25 00:38 | 21.31312 | -157.92628 | 23 ft | 0 kts | 321° |
| 2026-04-25 00:39 | 21.31315 | -157.92630 | 23 ft | 0 kts | 316° |
| 2026-04-25 00:39 | 21.31323 | -157.92639 | 23 ft | 5 kts | 319° |
| 2026-04-25 00:39 | 21.31331 | -157.92646 | 23 ft | 0 kts | 321° |
| 2026-04-25 00:42 | 21.31334 | -157.92648 | 23 ft | 3 kts | 321° |
| 2026-04-25 00:42 | 21.31386 | -157.92688 | 23 ft | 11 kts | 333° |
| 2026-04-25 00:42 | 21.31431 | -157.92662 | 24 ft | 8 kts | 54° |
| 2026-04-25 00:43 | 21.31522 | -157.92532 | 23 ft | 41 kts | 53° |
| 2026-04-25 00:43 | 21.31759 | -157.92189 | 38 ft | 69 kts | 55° |
| 2026-04-25 00:43 | 21.32048 | -157.91768 | 160 ft | 73 kts | 51° |
| 2026-04-25 00:43 | 21.32328 | -157.91338 | 362 ft | 69 kts | 56° |
| 2026-04-25 00:44 | 21.32591 | -157.90911 | 519 ft | 69 kts | 51° |
| 2026-04-25 00:44 | 21.32824 | -157.90385 | 686 ft | 84 kts | 72° |
| 2026-04-25 00:44 | 21.32735 | -157.89726 | 904 ft | 104 kts | 114° |
| 2026-04-25 00:44 | 21.32268 | -157.89104 | 1155 ft | 110 kts | 118° |
| 2026-04-25 00:45 | 21.31769 | -157.88438 | 1351 ft | 120 kts | 122° |
| 2026-04-25 00:45 | 21.31242 | -157.87788 | 1689 ft | 113 kts | 124° |
| 2026-04-25 00:45 | 21.30753 | -157.87146 | 1944 ft | 110 kts | 117° |
| 2026-04-25 00:45 | 21.30290 | -157.86449 | 2096 ft | 118 kts | 118° |
| 2026-04-25 00:46 | 21.29826 | -157.85748 | 2472 ft | 109 kts | 114° |
| 2026-04-25 00:46 | 21.29373 | -157.85075 | 2689 ft | 115 kts | 116° |
| 2026-04-25 00:46 | 21.28534 | -157.83660 | 3187 ft | 111 kts | 116° |
| 2026-04-25 00:47 | 21.28095 | -157.82987 | 3434 ft | 109 kts | 118° |
| 2026-04-25 00:47 | 21.27657 | -157.82326 | 3671 ft | 109 kts | 118° |
| 2026-04-25 00:47 | 21.27220 | -157.81676 | 3902 ft | 106 kts | 114° |
| 2026-04-25 00:47 | 21.26799 | -157.81042 | 4119 ft | 106 kts | 117° |
| 2026-04-25 00:48 | 21.26369 | -157.80402 | 4332 ft | 106 kts | 118° |
| 2026-04-25 00:48 | 21.25928 | -157.79756 | 4566 ft | 108 kts | 118° |
| 2026-04-25 00:48 | 21.25483 | -157.79100 | 4796 ft | 109 kts | 119° |
| 2026-04-25 00:48 | 21.25042 | -157.78444 | 5003 ft | 107 kts | 117° |
| 2026-04-25 00:49 | 21.24612 | -157.77806 | 5217 ft | 104 kts | 117° |
| 2026-04-25 00:49 | 21.24191 | -157.77185 | 5425 ft | 101 kts | 116° |
| 2026-04-25 00:49 | 21.23787 | -157.76582 | 5624 ft | 98 kts | 118° |
| 2026-04-25 00:49 | 21.23394 | -157.76003 | 5820 ft | 94 kts | 118° |
| 2026-04-25 00:50 | 21.23005 | -157.75414 | 5935 ft | 99 kts | 117° |
| 2026-04-25 00:50 | 21.22585 | -157.74810 | 6066 ft | 103 kts | 117° |
| 2026-04-25 00:50 | 21.22161 | -157.74167 | 6184 ft | 108 kts | 117° |
| 2026-04-25 00:50 | 21.21707 | -157.73497 | 6309 ft | 113 kts | 120° |
| 2026-04-25 00:51 | 21.21232 | -157.72804 | 6428 ft | 117 kts | 119° |
| 2026-04-25 00:51 | 21.20744 | -157.72087 | 6540 ft | 122 kts | 121° |
| 2026-04-25 00:51 | 21.20235 | -157.71330 | 6655 ft | 128 kts | 118° |
| 2026-04-25 00:51 | 21.19700 | -157.70541 | 6776 ft | 133 kts | 121° |
| 2026-04-25 00:52 | 21.19140 | -157.69725 | 6881 ft | 138 kts | 122° |
| 2026-04-25 00:52 | 21.18566 | -157.68876 | 6981 ft | 144 kts | 121° |
| 2026-04-25 00:52 | 21.17976 | -157.67989 | 6989 ft | 152 kts | 121° |
| 2026-04-25 00:52 | 21.17342 | -157.67051 | 6991 ft | 158 kts | 123° |
| 2026-04-25 00:53 | 21.16682 | -157.66092 | 6986 ft | 162 kts | 122° |
| 2026-04-25 00:53 | 21.16014 | -157.65106 | 6985 ft | 164 kts | 122° |
| 2026-04-25 00:53 | 21.15347 | -157.64101 | 6981 ft | 167 kts | 122° |
| 2026-04-25 00:53 | 21.14659 | -157.63094 | 6981 ft | 168 kts | 123° |
| 2026-04-25 00:54 | 21.13964 | -157.62074 | 6977 ft | 170 kts | 122° |
| 2026-04-25 00:54 | 21.13269 | -157.61053 | 6977 ft | 170 kts | 122° |
| 2026-04-25 00:54 | 21.12577 | -157.60030 | 6975 ft | 169 kts | 122° |
| 2026-04-25 00:54 | 21.11891 | -157.59005 | 6971 ft | 169 kts | 122° |
| 2026-04-25 00:55 | 21.11196 | -157.57988 | 6972 ft | 169 kts | 121° |
| 2026-04-25 00:55 | 21.10518 | -157.56980 | 6971 ft | 168 kts | 120° |
| 2026-04-25 00:55 | 21.09924 | -157.55908 | 6967 ft | 167 kts | 116° |
| 2026-04-25 00:55 | 21.09326 | -157.54841 | 6968 ft | 167 kts | 117° |
| 2026-04-25 00:56 | 21.08715 | -157.53775 | 6970 ft | 168 kts | 116° |
| 2026-04-25 00:56 | 21.08107 | -157.52702 | 6973 ft | 169 kts | 117° |
| 2026-04-25 00:56 | 21.07493 | -157.51621 | 6973 ft | 170 kts | 117° |
| 2026-04-25 00:56 | 21.06883 | -157.50537 | 6971 ft | 169 kts | 117° |
| 2026-04-25 00:57 | 21.06273 | -157.49461 | 6969 ft | 169 kts | 117° |
| 2026-04-25 00:57 | 21.05667 | -157.48386 | 6974 ft | 169 kts | 117° |
| 2026-04-25 00:57 | 21.05062 | -157.47310 | 6972 ft | 169 kts | 116° |
| 2026-04-25 00:57 | 21.04454 | -157.46228 | 6966 ft | 170 kts | 117° |
| 2026-04-25 00:58 | 21.03841 | -157.45148 | 6966 ft | 170 kts | 118° |
| 2026-04-25 00:58 | 21.03229 | -157.44071 | 6971 ft | 169 kts | 117° |
| 2026-04-25 00:58 | 21.02620 | -157.42992 | 6969 ft | 169 kts | 117° |
| 2026-04-25 00:58 | 21.02020 | -157.41934 | 6966 ft | 168 kts | 117° |
| 2026-04-25 00:59 | 21.01418 | -157.40865 | 6971 ft | 167 kts | 117° |
| 2026-04-25 00:59 | 21.00813 | -157.39803 | 6965 ft | 166 kts | 117° |
| 2026-04-25 00:59 | 21.00213 | -157.38747 | 6964 ft | 166 kts | 116° |
| 2026-04-25 00:59 | 20.99620 | -157.37689 | 6964 ft | 166 kts | 117° |
| 2026-04-25 01:00 | 20.99022 | -157.36627 | 6963 ft | 167 kts | 118° |
| 2026-04-25 01:00 | 20.98416 | -157.35562 | 6962 ft | 167 kts | 117° |
| 2026-04-25 01:00 | 20.97811 | -157.34494 | 6965 ft | 168 kts | 117° |
| 2026-04-25 01:00 | 20.97210 | -157.33439 | 6970 ft | 168 kts | 118° |
| 2026-04-25 01:01 | 20.96599 | -157.32367 | 6969 ft | 169 kts | 118° |
| 2026-04-25 01:01 | 20.95991 | -157.31291 | 6971 ft | 169 kts | 117° |
| 2026-04-25 01:01 | 20.95384 | -157.30216 | 6968 ft | 169 kts | 118° |
| 2026-04-25 01:01 | 20.94771 | -157.29140 | 6971 ft | 169 kts | 118° |
| 2026-04-25 01:02 | 20.94164 | -157.28064 | 6971 ft | 169 kts | 118° |
| 2026-04-25 01:02 | 20.93552 | -157.26987 | 6971 ft | 169 kts | 117° |
| 2026-04-25 01:02 | 20.92943 | -157.25911 | 6971 ft | 169 kts | 117° |
| 2026-04-25 01:02 | 20.92331 | -157.24836 | 6975 ft | 169 kts | 119° |
| 2026-04-25 01:03 | 20.91715 | -157.23757 | 6975 ft | 170 kts | 117° |
| 2026-04-25 01:03 | 20.91114 | -157.22689 | 6968 ft | 170 kts | 117° |
| 2026-04-25 01:03 | 20.90489 | -157.21593 | 6970 ft | 170 kts | 117° |
| 2026-04-25 01:03 | 20.89885 | -157.20523 | 6983 ft | 170 kts | 118° |
| 2026-04-25 01:04 | 20.89268 | -157.19440 | 6986 ft | 170 kts | 118° |
| 2026-04-25 01:04 | 20.88650 | -157.18359 | 6992 ft | 170 kts | 118° |
| 2026-04-25 01:04 | 20.88035 | -157.17276 | 6994 ft | 171 kts | 118° |
| 2026-04-25 01:04 | 20.87419 | -157.16186 | 6996 ft | 171 kts | 118° |
| 2026-04-25 01:05 | 20.86796 | -157.15098 | 7001 ft | 172 kts | 119° |
| 2026-04-25 01:05 | 20.86176 | -157.14008 | 7003 ft | 172 kts | 119° |
| 2026-04-25 01:05 | 20.85558 | -157.12914 | 7006 ft | 172 kts | 119° |
| 2026-04-25 01:05 | 20.84940 | -157.11825 | 7006 ft | 171 kts | 118° |
| 2026-04-25 01:06 | 20.84315 | -157.10735 | 7008 ft | 171 kts | 119° |
| 2026-04-25 01:06 | 20.83700 | -157.09646 | 7015 ft | 172 kts | 118° |
| 2026-04-25 01:06 | 20.83075 | -157.08558 | 7016 ft | 172 kts | 119° |
| 2026-04-25 01:06 | 20.82454 | -157.07466 | 7018 ft | 171 kts | 118° |
| 2026-04-25 01:07 | 20.82042 | -157.06746 | 7022 ft | 171 kts | 119° |
| 2026-04-25 01:07 | 20.81227 | -157.05306 | 7027 ft | 171 kts | 118° |
| 2026-04-25 01:07 | 20.80811 | -157.04574 | 7025 ft | 171 kts | 119° |
| 2026-04-25 01:07 | 20.79990 | -157.03141 | 7024 ft | 170 kts | 119° |
| 2026-04-25 01:08 | 20.79574 | -157.02408 | 7025 ft | 171 kts | 119° |
| 2026-04-25 01:08 | 20.78954 | -157.01326 | 7024 ft | 171 kts | 118° |
| 2026-04-25 01:08 | 20.78346 | -157.00254 | 7024 ft | 171 kts | 119° |
| 2026-04-25 01:08 | 20.77727 | -156.99171 | 7017 ft | 170 kts | 118° |
| 2026-04-25 01:09 | 20.77116 | -156.98085 | 7029 ft | 172 kts | 116° |
| 2026-04-25 01:09 | 20.76808 | -156.96869 | 7013 ft | 169 kts | 89° |
| 2026-04-25 01:09 | 20.77031 | -156.95611 | 6824 ft | 178 kts | 66° |
| 2026-04-25 01:09 | 20.77612 | -156.94427 | 6618 ft | 180 kts | 62° |
| 2026-04-25 01:10 | 20.78189 | -156.93252 | 6408 ft | 177 kts | 63° |
| 2026-04-25 01:10 | 20.78757 | -156.92074 | 6187 ft | 178 kts | 63° |
| 2026-04-25 01:10 | 20.79314 | -156.90919 | 5968 ft | 176 kts | 63° |
| 2026-04-25 01:10 | 20.79875 | -156.89757 | 5754 ft | 176 kts | 62° |
| 2026-04-25 01:11 | 20.80439 | -156.88591 | 5527 ft | 177 kts | 63° |
| 2026-04-25 01:11 | 20.80988 | -156.87438 | 5284 ft | 167 kts | 60° |
| 2026-04-25 01:11 | 20.81496 | -156.86410 | 5055 ft | 152 kts | 62° |
| 2026-04-25 01:11 | 20.81981 | -156.85393 | 4838 ft | 158 kts | 64° |
| 2026-04-25 01:12 | 20.82499 | -156.84324 | 4610 ft | 163 kts | 61° |
| 2026-04-25 01:12 | 20.83045 | -156.83262 | 4373 ft | 162 kts | 63° |
| 2026-04-25 01:12 | 20.83529 | -156.82181 | 4172 ft | 162 kts | 64° |
| 2026-04-25 01:12 | 20.84030 | -156.81105 | 3932 ft | 159 kts | 63° |
| 2026-04-25 01:13 | 20.84535 | -156.80079 | 3714 ft | 154 kts | 62° |
| 2026-04-25 01:13 | 20.85020 | -156.79083 | 3483 ft | 152 kts | 63° |
| 2026-04-25 01:13 | 20.85504 | -156.78079 | 3266 ft | 151 kts | 62° |
| 2026-04-25 01:13 | 20.85984 | -156.77080 | 3037 ft | 152 kts | 62° |
| 2026-04-25 01:14 | 20.86468 | -156.76071 | 2810 ft | 152 kts | 62° |
| 2026-04-25 01:14 | 20.86952 | -156.75062 | 2588 ft | 152 kts | 60° |
| 2026-04-25 01:14 | 20.87440 | -156.74048 | 2371 ft | 154 kts | 61° |
| 2026-04-25 01:14 | 20.87931 | -156.73028 | 2148 ft | 154 kts | 61° |
| 2026-04-25 01:15 | 20.88436 | -156.72017 | 1915 ft | 153 kts | 55° |
| 2026-04-25 01:15 | 20.89230 | -156.71293 | 1688 ft | 151 kts | 26° |
| 2026-04-25 01:15 | 20.90164 | -156.70787 | 1461 ft | 150 kts | 29° |
| 2026-04-25 01:15 | 20.91087 | -156.70256 | 1229 ft | 149 kts | 27° |
| 2026-04-25 01:16 | 20.91954 | -156.69774 | 1161 ft | 129 kts | 29° |
| 2026-04-25 01:16 | 20.92704 | -156.69357 | 1199 ft | 118 kts | 30° |
| 2026-04-25 01:16 | 20.93387 | -156.68957 | 1134 ft | 108 kts | 28° |
| 2026-04-25 01:16 | 20.94032 | -156.68601 | 1023 ft | 100 kts | 27° |
| 2026-04-25 01:17 | 20.94620 | -156.68279 | 822 ft | 88 kts | 34° |
| 2026-04-25 01:17 | 20.95107 | -156.67974 | 544 ft | 75 kts | 29° |
| 2026-04-25 01:17 | 20.95529 | -156.67745 | 383 ft | 60 kts | 31° |
| 2026-04-25 01:17 | 20.95894 | -156.67534 | 270 ft | 62 kts | 29° |
| 2026-04-25 01:18 | 20.96196 | -156.67360 | 256 ft | 22 kts | 27° |
| 2026-04-25 01:18 | 20.96274 | -156.67339 | 256 ft | 10 kts | 316° |
| 2026-04-25 01:18 | 20.96265 | -156.67405 | 250 ft | 5 kts | 253° |
| 2026-04-25 01:18 | 20.96262 | -156.67416 | 249 ft | 8 kts | 250° |
| 2026-04-25 01:19 | 20.96237 | -156.67458 | 246 ft | 8 kts | 235° |
| 2026-04-25 01:19 | 20.96244 | -156.67471 | 244 ft | 0 kts | 52° |
| 2026-04-25 01:19 | 20.96246 | -156.67466 | 244 ft | 0 kts | 70° |